Latest Coastal Weather Observations for Montague Island

IDN60701

Issued at 12:45 am EST Sunday 20 April 2014 (issued every 10 minutes, with the page automatically refreshed every 10 minutes)

About coastal observations | Map of coastal stations | Coastal observations for NSW | Marine services | Other Formats
Station Details ID: 069017 Name: MONTAGUE ISLAND LIGHTHOUSE Lat: -36.25 Lon: 150.23 Height: 52.0 m
Data from the previous 72 hours. | See also: Recent months at Montague Island
Date/Time
EST
Temp

°C
Wind Pressure Rain
since 9am
mm
Weather Cloud Vis
km
Sea
Height
m
Swell
Dir
 
Speed
knots
Gust
knots
hPa Trend Height
m
Period
s
Dir
20/12:30am 15.9 SSW 9 12 1017.4 - 0.0 - - - - - - -
20/12:00am 15.9 SSW 9 13 1017.4 - 0.0 - - - - - - -
 
Date/Time
EST
Temp

°C
Wind Pressure Rain
since 9am
mm
Weather Cloud Vis
km
Sea
Height
m
Swell
Dir
 
Speed
knots
Gust
knots
hPa Trend Height
m
Period
s
Dir
19/11:30pm 15.9 SSW 11 16 1017.6 - 0.0 - - - - - - -
19/11:00pm 16.1 WSW 11 15 1017.6 - 0.0 - - - - - - -
19/10:30pm 16.3 WSW 14 19 1017.6 - 0.0 - - - - - - -
19/10:00pm 16.1 WSW 18 21 1017.7 - 0.0 - - - - - - -
19/09:30pm 16.1 SW 19 23 1017.6 - 0.0 - - - - - - -
19/09:00pm 16.1 SW 16 21 1017.5 - 0.0 - - - - - - -
19/08:30pm 16.3 SW 15 20 1017.5 - 0.0 - - - - - - -
19/08:00pm 16.4 SW 17 22 1017.3 - 0.0 - - - - - - -
19/07:30pm 16.5 SSW 21 26 1017.1 - 0.0 - - - - - - -
19/07:00pm 16.4 SSW 18 25 1016.8 - 0.0 - - - - - - -
19/06:30pm 16.6 SSW 19 24 1016.5 - 0.0 - - - - - - -
19/06:00pm 16.8 SSW 19 25 1016.0 - 0.0 - - - - - - -
19/05:30pm 16.9 SSW 20 26 1015.8 - 0.0 - - - - - - -
19/05:00pm 17.2 SSW 21 27 1015.3 - 0.0 - - - - - - -
19/04:30pm 17.5 SSW 20 25 1015.3 - 0.0 - - - - - - -
19/04:00pm 17.8 SSW 20 27 1015.1 - 0.0 - - - - - - -
19/03:30pm 18.1 SSW 17 23 1015.4 - 0.0 - - - - - - -
19/03:00pm 18.4 SSW 17 23 1015.0 - 0.0 - - - - - - -
19/02:30pm 18.4 SSW 17 22 1015.2 - 0.0 - - - - - - -
19/02:00pm 18.5 SSW 16 22 1015.0 - 0.0 - - - - - - -
19/01:30pm 18.3 SSW 16 22 1015.3 - 0.0 - - - - - - -
19/01:00pm 18.7 SW 17 24 1015.3 - 0.0 - - - - - - -
19/12:30pm 18.3 SW 18 26 1015.8 - 0.0 - - - - - - -
19/12:00pm 18.5 SW 15 20 1016.1 - 0.0 - - - - - - -
19/11:30am 18.0 SSW 17 23 1016.3 - 0.0 - - - - - - -
19/11:00am 18.7 SW 12 16 1016.7 - 0.0 - - - - - - -
19/10:30am 18.1 SW 12 17 1017.1 - 0.0 - - - - - - -
19/10:00am 17.5 WSW 16 22 1016.7 - 0.0 - - - - - - -
19/09:30am 17.2 WSW 17 23 1017.0 - 0.0 - - - - - - -
19/09:00am 16.4 WSW 13 17 1017.0 - 0.0 - - - - - - -
19/08:30am 15.9 WSW 13 18 1017.0 - 0.0 - - - - - - -
19/08:00am 15.6 WSW 12 16 1016.8 - 0.0 - - - - - - -
19/07:30am 14.3 W 14 18 1016.7 - 0.0 - - - - - - -
19/07:00am 13.6 W 14 17 1016.4 - 0.0 - - - - - - -
19/06:30am 13.2 W 15 18 1016.2 - 0.0 - - - - - - -
19/06:00am 13.6 W 13 16 1015.9 - 0.0 - - - - - - -
19/05:30am 14.0 W 15 19 1015.7 - 0.0 - - - - - - -
19/05:00am 14.1 WSW 17 23 1015.1 - 0.0 - - - - - - -
19/04:30am 14.3 WSW 19 25 1015.2 - 0.0 - - - - - - -
19/04:00am 14.3 WSW 22 30 1014.8 - 0.0 - - - - - - -
19/03:30am 14.4 WSW 22 28 1015.0 - 0.0 - - - - - - -
19/03:00am 14.6 WSW 24 29 1014.8 - 0.0 - - - - - - -
19/02:30am 14.8 WSW 25 32 1014.9 - 0.0 - - - - - - -
19/02:00am 15.0 SW 28 36 1014.6 - 0.0 - - - - - - -
19/01:30am 15.2 SW 32 38 1014.7 - 0.0 - - - - - - -
19/01:00am 15.5 WSW 25 32 1014.8 - 0.0 - - - - - - -
19/12:30am 15.8 WSW 27 33 1015.0 - 0.0 - - - - - - -
19/12:00am 15.9 SW 24 34 1014.3 - 0.0 - - - - - - -
 
Date/Time
EST
Temp

°C
Wind Pressure Rain
since 9am
mm
Weather Cloud Vis
km
Sea
Height
m
Swell
Dir
 
Speed
knots
Gust
knots
hPa Trend Height
m
Period
s
Dir
18/11:52pm 16.1 SW 22 32 1014.9 - 0.0 - - - - - - -
18/11:30pm 16.2 SW 23 29 1014.9 - 0.0 - - - - - - -
18/11:00pm 16.5 SW 26 31 1014.6 - 0.0 - - - - - - -
18/10:30pm 16.6 SW 23 29 1015.1 - 0.0 - - - - - - -
18/10:00pm 16.9 SW 26 32 1014.3 - 0.0 - - - - - - -
18/09:30pm 17.0 SSW 19 26 1014.2 - 0.0 - - - - - - -
18/09:00pm 17.2 SSW 19 24 1014.0 - 0.0 - - - - - - -
18/08:30pm 17.1 SSW 22 28 1013.6 - 0.0 - - - - - - -
18/08:00pm 17.6 SSW 24 32 1013.2 - 0.0 - - - - - - -
18/07:30pm 18.3 SSW 25 31 1012.6 - 0.0 - - - - - - -
18/07:00pm 18.9 S 26 32 1012.1 - 0.0 - - - - - - -
18/06:48pm 19.7 S 19 29 1012.2 - 0.0 - - - - - - -
18/06:44pm 20.1 S 16 24 1012.2 - 0.0 - - - - - - -
18/06:30pm 20.9 NNW 9 12 1011.5 - 0.0 - - - - - - -
18/06:00pm 20.9 NNW 11 13 1011.0 - 0.0 - - - - - - -
18/05:30pm 20.7 N 10 14 1010.7 - 0.0 - - - - - - -
18/05:00pm 20.8 N 9 11 1010.6 - 0.0 - - - - - - -
18/04:30pm 21.2 NNW 6 8 1011.1 - 0.0 - - - - - - -
18/04:00pm 21.2 N 5 6 1010.8 - 0.0 - - - - - - -
18/03:30pm 21.8 NNE 7 9 1010.8 - 0.0 - - - - - - -
18/03:00pm 21.5 NNE 7 9 1010.7 - 0.0 - - - - - - -
18/02:30pm 21.3 NNE 7 9 1010.9 - 0.0 - - - - - - -
18/02:00pm 21.9 NNE 7 9 1010.9 - 0.0 - - - - - - -
18/01:30pm 22.0 NE 6 8 1011.3 - 0.0 - - - - - - -
18/01:00pm 21.8 NE 5 7 1011.6 - 0.0 - - - - - - -
18/12:30pm 22.4 W 2 4 1012.5 - 0.0 - - - - - - -
18/12:00pm 22.4 WNW 3 5 1012.8 - 0.0 - - - - - - -
18/11:30am 22.2 WNW 4 7 1013.5 - 0.0 - - - - - - -
18/11:00am 21.7 NW 5 7 1013.6 - 0.0 - - - - - - -
18/10:30am 21.2 WNW 5 7 1014.1 - 0.0 - - - - - - -
18/10:00am 21.1 WNW 6 8 1014.1 - 0.0 - - - - - - -
18/09:30am 20.0 WNW 6 9 1014.7 - 0.0 - - - - - - -
18/09:00am 19.3 WNW 4 6 1014.9 - 0.0 - - - - - - -
18/08:30am 18.5 W 4 6 1015.2 - 0.0 - - - - - - -
18/08:00am 17.1 W 6 8 1015.1 - 0.0 - - - - - - -
18/07:30am 16.3 W 8 10 1015.1 - 0.0 - - - - - - -
18/07:00am 16.0 WNW 9 11 1014.9 - 0.0 - - - - - - -
18/06:30am 15.6 WNW 9 12 1015.1 - 0.0 - - - - - - -
18/06:00am 15.5 W 8 10 1015.0 - 0.0 - - - - - - -
18/05:30am 15.7 W 7 9 1015.3 - 0.0 - - - - - - -
18/05:00am 16.0 WNW 7 8 1015.2 - 0.0 - - - - - - -
18/04:30am 15.8 W 8 9 1015.8 - 0.0 - - - - - - -
18/04:00am 16.1 W 8 9 1015.7 - 0.0 - - - - - - -
18/03:30am 16.1 W 9 11 1016.0 - 0.0 - - - - - - -
18/03:00am 16.4 W 8 10 1016.1 - 0.0 - - - - - - -
18/02:30am 16.4 W 9 10 1016.4 - 0.0 - - - - - - -
18/02:00am 16.6 W 8 9 1016.6 - 0.0 - - - - - - -
18/01:30am 16.5 W 9 10 1017.2 - 0.0 - - - - - - -
18/01:00am 16.6 W 9 11 1017.3 - 0.0 - - - - - - -
18/12:30am 17.1 W 8 10 1017.6 - 0.0 - - - - - - -
18/12:00am 16.9 W 9 11 1017.8 - 0.0 - - - - - - -
 
Date/Time
EST
Temp

°C
Wind Pressure Rain
since 9am
mm
Weather Cloud Vis
km
Sea
Height
m
Swell
Dir
 
Speed
knots
Gust
knots
hPa Trend Height
m
Period
s
Dir
17/11:30pm 17.3 W 10 13 1018.2 - 0.0 - - - - - - -
17/11:00pm 17.5 SW 11 14 1018.4 - 0.0 - - - - - - -
17/10:30pm 17.6 WSW 11 14 1018.8 - 0.0 - - - - - - -
17/10:00pm 17.9 W 11 14 1019.0 - 0.0 - - - - - - -
17/09:30pm 18.1 WSW 10 13 1019.2 - 0.0 - - - - - - -
17/09:00pm 18.1 WSW 12 14 1019.1 - 0.0 - - - - - - -
17/08:30pm 18.3 WSW 11 13 1019.2 - 0.0 - - - - - - -
17/08:00pm 18.7 SW 5 8 1019.1 - 0.0 - - - - - - -
17/07:30pm 18.7 S 10 13 1019.0 - 0.0 - - - - - - -
17/07:00pm 18.9 S 11 15 1018.8 - 0.0 - - - - - - -
17/06:30pm 18.8 S 14 18 1018.6 - 0.0 - - - - - - -
17/06:00pm 18.9 S 14 17 1018.4 - 0.0 - - - - - - -
17/05:30pm 19.0 S 13 17 1018.5 - 0.0 - - - - - - -
17/05:00pm 19.0 SSE 16 21 1018.3 - 0.0 - - - - - - -
17/04:30pm 19.1 SSE 16 21 1018.5 - 0.0 - - - - - - -
17/04:00pm 19.2 SSE 18 22 1018.3 - 0.0 - - - - - - -
17/03:30pm 19.8 SSE 14 18 1018.4 - 0.0 - - - - - - -
17/03:00pm 19.9 S 14 19 1018.4 - 0.0 - - - - - - -
17/02:30pm 20.4 S 13 16 1018.6 - 0.0 - - - - - - -
17/02:00pm 20.7 S 14 17 1018.7 - 0.0 - - - - - - -
17/01:30pm 20.9 S 14 17 1018.9 - 0.0 - - - - - - -
17/01:00pm 20.7 SSW 13 18 1019.0 - 0.0 - - - - - - -
17/12:30pm 20.7 SSW 13 17 1019.4 - 0.0 - - - - - - -
17/12:00pm 20.3 SSW 14 18 1019.6 - 0.0 - - - - - - -
17/11:30am 20.5 SSW 14 19 1020.1 - 0.0 - - - - - - -
17/11:00am 20.1 SSW 14 19 1020.1 - 0.0 - - - - - - -
17/10:30am 19.9 SW 17 21 1020.2 - 0.0 - - - - - - -
17/10:00am 19.3 SW 16 21 1020.1 - 0.0 - - - - - - -
17/09:30am 18.7 SW 18 22 1020.1 - 0.0 - - - - - - -
17/09:00am 18.5 SW 18 22 1020.0 - 0.0 - - - - - - -
17/08:30am 17.7 SW 18 22 1020.0 - 0.0 - - - - - - -
17/08:00am 17.4 SW 17 21 1019.7 - 0.0 - - - - - - -
17/07:30am 17.0 SW 17 20 1019.6 - 0.0 - - - - - - -
17/07:00am 16.4 SW 17 21 1019.2 - 0.0 - - - - - - -
17/06:30am 16.2 SW 16 19 1019.0 - 0.0 - - - - - - -
17/06:00am 16.4 SW 17 20 1018.7 - 0.0 - - - - - - -
17/05:30am 16.3 SW 16 19 1018.4 - 0.0 - - - - - - -
17/05:00am 16.2 SW 15 18 1018.2 - 0.0 - - - - - - -
17/04:30am 16.4 SW 16 19 1018.2 - 0.0 - - - - - - -
17/04:00am 16.4 SW 15 17 1018.1 - 0.0 - - - - - - -
17/03:30am 16.6 SW 17 20 1018.0 - 0.0 - - - - - - -
17/03:00am 16.5 SW 16 20 1018.0 - 0.0 - - - - - - -
17/02:30am 16.7 SW 16 19 1018.2 - 0.0 - - - - - - -
17/02:00am 16.9 SW 15 18 1018.4 - 0.0 - - - - - - -
17/01:30am 16.9 SW 16 18 1018.6 - 0.0 - - - - - - -
17/01:00am 17.0 SW 16 19 1018.8 - 0.0 - - - - - - -

Other Formats:

Comma delimited format used in spreadsheet applications
http://www.bom.gov.au/fwo/IDN60701/IDN60701.94939.axf

JavaScript Object Notation format (JSON) in row-major order
http://www.bom.gov.au/fwo/IDN60701/IDN60701.94939.json